Time;durP1;ratioP1;P1;durP2;ratioP2;P2;SDS_P1;SDS_P2;PMS_P1;PMS_P2;Temp;Humidity;BMP_temperature;BMP_pressure;BME280_temperature;BME280_humidity;BME280_pressure;Samples;Min_cycle;Max_cycle;Signal;HPM_P1;HPM_P2
2023/12/01 00:02:11;;;;;;;32.92;17.27;;;;;;;-0.46;100.00;99726.03;6125620;23;20375;-82
2023/12/01 00:04:40;;;;;;;38.53;19.50;;;;;;;-0.48;100.00;99730.31;6094158;23;20095;-82
2023/12/01 00:07:09;;;;;;;40.33;19.42;;;;;;;-0.52;100.00;99733.66;6120270;23;20029;-82
2023/12/01 00:09:36;;;;;;;45.30;21.25;;;;;;;-0.53;100.00;99725.03;6095086;23;20096;-82
2023/12/01 00:12:03;;;;;;;48.88;20.25;;;;;;;-0.53;100.00;99729.34;6121456;23;20018;-83
2023/12/01 00:14:30;;;;;;;45.58;20.77;;;;;;;-0.71;100.00;99733.22;6071341;23;20025;-83
2023/12/01 00:17:01;;;;;;;46.83;22.63;;;;;;;-0.59;100.00;99744.63;6047106;23;20056;-81
2023/12/01 00:19:31;;;;;;;43.38;21.33;;;;;;;-0.49;100.00;99743.97;6071232;23;20028;-83
2023/12/01 00:21:58;;;;;;;42.72;18.50;;;;;;;-0.53;100.00;99748.19;6071853;23;20028;-83
2023/12/01 00:24:25;;;;;;;42.88;20.85;;;;;;;-0.48;100.00;99743.16;6071166;23;20065;-82
2023/12/01 00:26:51;;;;;;;44.58;21.50;;;;;;;-0.41;100.00;99739.00;6120018;23;20138;-83
2023/12/01 00:29:18;;;;;;;40.35;19.02;;;;;;;-0.41;100.00;99747.56;6094800;23;20033;-82
2023/12/01 00:31:44;;;;;;;39.33;19.23;;;;;;;-0.43;100.00;99736.41;6094108;23;20105;-80
2023/12/01 00:34:11;;;;;;;38.35;20.45;;;;;;;-0.42;100.00;99739.84;6094642;23;20017;-83
2023/12/01 00:36:38;;;;;;;38.83;20.73;;;;;;;-0.48;100.00;99744.84;6071022;23;20117;-83
2023/12/01 00:39:06;;;;;;;44.00;22.52;;;;;;;-0.40;100.00;99740.75;6094634;23;20345;-82
2023/12/01 00:41:33;;;;;;;43.13;18.75;;;;;;;-0.45;100.00;99738.06;6093032;23;20045;-82
2023/12/01 00:44:00;;;;;;;48.20;21.63;;;;;;;-0.44;100.00;99744.06;6069314;23;20030;-83
2023/12/01 00:46:27;;;;;;;39.90;19.95;;;;;;;-0.49;100.00;99748.28;6068866;23;20352;-83
2023/12/01 00:48:53;;;;;;;42.85;21.00;;;;;;;-0.48;100.00;99748.28;6094795;23;20025;-83
2023/12/01 00:51:20;;;;;;;49.78;22.13;;;;;;;-0.40;100.00;99753.59;6069696;23;20064;-82
2023/12/01 00:53:50;;;;;;;46.38;22.25;;;;;;;-0.39;100.00;99760.47;6093139;23;20786;-81
2023/12/01 00:56:16;;;;;;;45.58;22.83;;;;;;;-0.36;100.00;99758.81;6094572;23;20602;-81
2023/12/01 00:58:43;;;;;;;44.60;20.85;;;;;;;-0.45;100.00;99765.50;6093564;23;20109;-81
2023/12/01 01:01:13;;;;;;;39.67;20.42;;;;;;;-0.48;100.00;99767.97;6116838;23;20098;-82
2023/12/01 01:03:40;;;;;;;44.08;23.05;;;;;;;-0.55;100.00;99764.41;6101039;23;20029;-83
2023/12/01 01:06:07;;;;;;;41.90;20.25;;;;;;;-0.68;100.00;99766.72;6098899;23;20024;-81
2023/12/01 01:08:35;;;;;;;49.42;22.05;;;;;;;-0.56;100.00;99754.97;6148171;23;20017;-82
2023/12/01 01:11:08;;;;;;;46.88;20.98;;;;;;;-0.53;100.00;99765.31;6122123;23;20060;-83
2023/12/01 01:13:36;;;;;;;45.90;21.75;;;;;;;-0.59;100.00;99763.47;6145503;23;20025;-83
2023/12/01 01:16:03;;;;;;;47.30;21.00;;;;;;;-0.62;100.00;99762.56;6098186;23;20648;-82
2023/12/01 01:18:29;;;;;;;52.97;23.63;;;;;;;-0.61;100.00;99765.16;6099958;23;20683;-82
2023/12/01 01:20:56;;;;;;;43.47;21.33;;;;;;;-0.53;100.00;99770.47;6123482;23;20025;-83
2023/12/01 01:23:24;;;;;;;47.03;22.15;;;;;;;-0.62;100.00;99767.69;6098642;23;20025;-82
2023/12/01 01:25:51;;;;;;;45.53;20.95;;;;;;;-0.53;100.00;99770.47;6099724;23;20104;-82
2023/12/01 01:28:18;;;;;;;45.67;22.73;;;;;;;-0.52;100.00;99769.63;6123718;23;20132;-81
2023/12/01 01:30:47;;;;;;;41.67;19.63;;;;;;;-0.45;100.00;99768.91;6123314;23;20192;-81
2023/12/01 01:33:13;;;;;;;51.95;21.80;;;;;;;-0.48;100.00;99771.44;6099593;23;20435;-83
2023/12/01 01:35:40;;;;;;;47.85;20.65;;;;;;;-0.42;100.00;99768.97;6123823;23;20439;-81
2023/12/01 01:38:08;;;;;;;43.15;20.50;;;;;;;-0.50;100.00;99767.94;6123939;23;20328;-82
2023/12/01 01:40:35;;;;;;;44.13;22.17;;;;;;;-0.62;100.00;99778.84;6123303;23;20406;-84
2023/12/01 01:43:01;;;;;;;46.78;22.23;;;;;;;-0.50;100.00;99765.38;6123633;23;20044;-83
2023/12/01 01:45:28;;;;;;;44.42;20.35;;;;;;;-0.62;100.00;99771.13;6098795;23;20025;-82
2023/12/01 01:47:54;;;;;;;48.70;21.90;;;;;;;-0.61;100.00;99774.56;6123800;23;20447;-83
2023/12/01 01:50:22;;;;;;;52.78;20.80;;;;;;;-0.58;100.00;99780.63;6122991;23;20048;-81
2023/12/01 01:52:50;;;;;;;42.67;20.27;;;;;;;-0.53;100.00;99788.47;6098860;23;20092;-82
2023/12/01 01:55:17;;;;;;;47.25;20.02;;;;;;;-0.57;100.00;99784.09;6121177;23;20108;-81
2023/12/01 01:57:45;;;;;;;45.80;21.63;;;;;;;-0.61;100.00;99783.16;6123473;23;20067;-82
2023/12/01 02:00:17;;;;;;;50.28;22.10;;;;;;;-0.51;100.00;99790.22;6099260;23;20088;-82
2023/12/01 02:02:46;;;;;;;43.78;20.65;;;;;;;-0.47;100.00;99793.75;6147294;23;20499;-81
2023/12/01 02:05:14;;;;;;;44.25;20.83;;;;;;;-0.54;100.00;99791.88;6113933;23;20026;-81
2023/12/01 02:07:41;;;;;;;39.45;19.63;;;;;;;-0.59;100.00;99794.31;6069823;23;20444;-82
2023/12/01 02:10:15;;;;;;;41.38;18.67;;;;;;;-0.67;100.00;99791.56;6093743;23;20117;-81
2023/12/01 02:12:43;;;;;;;44.53;19.10;;;;;;;-0.69;100.00;99794.97;6069925;23;20025;-81
2023/12/01 02:15:10;;;;;;;45.28;21.23;;;;;;;-0.63;100.00;99800.22;6092182;23;20053;-82
2023/12/01 02:17:39;;;;;;;43.38;21.50;;;;;;;-0.54;100.00;99799.56;6090186;23;20325;-82
2023/12/01 02:20:06;;;;;;;41.88;20.27;;;;;;;-0.57;100.00;99802.94;6117098;23;20026;-84
2023/12/01 02:22:34;;;;;;;43.45;20.10;;;;;;;-0.57;100.00;99802.94;6093480;23;20087;-81
2023/12/01 02:25:01;;;;;;;43.13;21.05;;;;;;;-0.50;100.00;99801.38;6092206;23;20026;-83
2023/12/01 02:27:28;;;;;;;46.03;23.00;;;;;;;-0.53;100.00;99804.75;6093183;23;20022;-82
2023/12/01 02:29:55;;;;;;;41.42;20.50;;;;;;;-0.57;100.00;99808.09;6092001;23;20029;-81
2023/12/01 02:32:22;;;;;;;48.40;21.48;;;;;;;-0.56;100.00;99811.50;6092790;23;20018;-81
2023/12/01 02:34:49;;;;;;;42.30;19.88;;;;;;;-0.59;100.00;99804.59;6116672;23;20065;-83
2023/12/01 02:37:15;;;;;;;49.55;21.13;;;;;;;-0.62;100.00;99799.41;6093312;23;20032;-81
2023/12/01 02:39:44;;;;;;;44.85;19.75;;;;;;;-0.69;100.00;99803.53;6116944;23;20022;-81
2023/12/01 02:42:10;;;;;;;46.45;21.48;;;;;;;-0.62;100.00;99801.13;6092589;23;20113;-83
2023/12/01 02:44:36;;;;;;;47.30;20.83;;;;;;;-0.52;100.00;99795.34;6091949;23;20041;-81
2023/12/01 02:47:03;;;;;;;48.35;20.23;;;;;;;-0.48;100.00;99796.25;6093432;23;20073;-82
2023/12/01 02:49:30;;;;;;;45.10;22.05;;;;;;;-0.53;100.00;99799.59;6091704;23;20057;-82
2023/12/01 02:51:57;;;;;;;45.67;20.63;;;;;;;-0.49;100.00;99799.69;6092901;23;20830;-82
2023/12/01 02:54:23;;;;;;;48.90;21.27;;;;;;;-0.46;100.00;99800.59;6093014;23;20363;-82
2023/12/01 02:56:50;;;;;;;50.45;22.25;;;;;;;-0.57;100.00;99800.38;6094246;23;20084;-82
2023/12/01 02:59:16;;;;;;;49.28;22.17;;;;;;;-0.70;100.00;99796.66;6092744;23;20601;-82
2023/12/01 03:01:43;;;;;;;47.13;22.58;;;;;;;-0.63;100.00;99804.50;6091294;23;20129;-82
2023/12/01 03:04:09;;;;;;;47.45;19.40;;;;;;;-0.67;100.00;99796.72;6102756;23;20053;-82
2023/12/01 03:06:36;;;;;;;39.88;19.70;;;;;;;-0.62;100.00;99801.13;6097815;23;20109;-81
2023/12/01 03:09:03;;;;;;;52.15;23.00;;;;;;;-0.59;100.00;99796.03;6120076;23;20033;-82
2023/12/01 03:11:31;;;;;;;52.53;22.35;;;;;;;-0.46;100.00;99803.16;6123348;23;20029;-82
2023/12/01 03:13:58;;;;;;;50.40;22.40;;;;;;;-0.49;100.00;99804.84;6094841;23;20032;-81
2023/12/01 03:16:24;;;;;;;45.13;22.75;;;;;;;-0.47;100.00;99806.59;6122072;23;20123;-82
2023/12/01 03:18:51;;;;;;;48.83;22.55;;;;;;;-0.57;100.00;99805.50;6122843;23;20022;-82
2023/12/01 03:21:17;;;;;;;51.28;21.05;;;;;;;-0.60;100.00;99807.13;6123229;23;20025;-84
2023/12/01 03:23:44;;;;;;;51.42;21.83;;;;;;;-0.72;100.00;99813.75;6121999;23;20036;-82
2023/12/01 03:26:11;;;;;;;47.72;22.13;;;;;;;-0.75;100.00;99815.38;6123933;23;20420;-82
2023/12/01 03:28:37;;;;;;;48.95;21.30;;;;;;;-0.63;100.00;99814.78;6098880;23;20248;-83
2023/12/01 03:31:04;;;;;;;44.65;19.95;;;;;;;-0.60;100.00;99814.84;6122734;23;20564;-83
2023/12/01 03:33:31;;;;;;;45.67;20.73;;;;;;;-0.57;100.00;99820.94;6121975;23;20044;-83
2023/12/01 03:35:58;;;;;;;41.20;20.65;;;;;;;-0.55;100.00;99815.81;6146987;23;20028;-83
2023/12/01 03:38:25;;;;;;;43.47;20.33;;;;;;;-0.55;100.00;99818.41;6097560;23;20553;-81
2023/12/01 03:40:51;;;;;;;52.60;21.65;;;;;;;-0.60;100.00;99823.44;6120208;23;20434;-82
2023/12/01 03:43:18;;;;;;;43.55;19.63;;;;;;;-0.72;100.00;99829.19;6096584;23;20029;-82
2023/12/01 03:45:44;;;;;;;41.22;19.75;;;;;;;-0.75;100.00;99828.22;6120769;23;20025;-82
2023/12/01 03:48:11;;;;;;;43.60;18.42;;;;;;;-0.84;100.00;99831.44;6121990;23;20041;-82
2023/12/01 03:50:37;;;;;;;37.40;18.50;;;;;;;-0.97;100.00;99827.72;6122131;23;20071;-82
2023/12/01 03:53:04;;;;;;;50.25;21.15;;;;;;;-0.98;100.00;99835.38;6097800;23;20479;-82
2023/12/01 03:55:31;;;;;;;39.90;19.27;;;;;;;-1.00;100.00;99830.22;6098787;23;20049;-83
2023/12/01 03:57:57;;;;;;;45.45;21.10;;;;;;;-0.91;100.00;99832.13;6097444;23;20041;-82
2023/12/01 04:00:32;;;;;;;43.05;18.40;;;;;;;-0.89;100.00;99833.03;6122029;23;20029;-81
2023/12/01 04:02:59;;;;;;;42.95;18.13;;;;;;;-0.91;100.00;99835.56;6099356;23;20852;-82
2023/12/01 04:05:26;;;;;;;40.97;20.60;;;;;;;-0.88;100.00;99837.34;6096964;23;20063;-82
2023/12/01 04:07:53;;;;;;;38.03;18.05;;;;;;;-0.80;100.00;99835.81;6119929;23;20045;-82
2023/12/01 04:10:20;;;;;;;37.53;18.10;;;;;;;-0.76;100.00;99835.06;6122957;23;20031;-82
2023/12/01 04:12:47;;;;;;;40.88;18.00;;;;;;;-0.72;100.00;99834.31;6122484;23;20013;-82
2023/12/01 04:15:16;;;;;;;42.72;19.25;;;;;;;-0.71;100.00;99838.59;6120772;23;20098;-81
2023/12/01 04:17:44;;;;;;;43.25;19.67;;;;;;;-0.81;100.00;99834.06;6121880;23;20458;-83
2023/12/01 04:20:22;;;;;;;36.67;18.90;;;;;;;-0.84;100.00;99836.59;6097276;23;20044;-82
2023/12/01 04:22:51;;;;;;;38.78;18.75;;;;;;;-0.98;100.00;99832.81;6145564;23;20080;-83
2023/12/01 04:25:18;;;;;;;38.38;17.13;;;;;;;-1.07;100.00;99843.72;6097027;23;20045;-82
2023/12/01 04:27:47;;;;;;;32.03;16.55;;;;;;;-1.23;100.00;99845.03;6098079;23;20025;-82
2023/12/01 04:30:17;;;;;;;35.28;16.88;;;;;;;-1.28;100.00;99841.47;6097083;23;20459;-83
2023/12/01 04:32:46;;;;;;;27.60;15.63;;;;;;;-1.23;100.00;99840.75;6122219;23;20045;-81
2023/12/01 04:35:13;;;;;;;34.03;18.48;;;;;;;-1.20;100.00;99845.09;6097805;23;20029;-82
2023/12/01 04:37:43;;;;;;;27.58;14.60;;;;;;;-1.26;100.00;99850.09;6122154;23;20029;-82
2023/12/01 04:40:14;;;;;;;29.52;16.17;;;;;;;-1.44;100.00;99853.91;6097666;23;20036;-82
2023/12/01 04:42:52;;;;;;;30.63;14.05;;;;;;;-1.60;100.00;99849.19;6122465;23;20101;-82
2023/12/01 04:45:22;;;;;;;30.05;16.58;;;;;;;-1.54;100.00;99859.63;6121924;23;20128;-83
2023/12/01 04:47:53;;;;;;;31.33;15.65;;;;;;;-1.55;100.00;99853.63;6122983;23;20021;-82
2023/12/01 04:50:22;;;;;;;30.08;15.63;;;;;;;-1.47;100.00;99864.13;6097925;23;20112;-82
2023/12/01 04:52:53;;;;;;;29.70;15.25;;;;;;;-1.67;100.00;99863.53;6123788;23;20502;-82
2023/12/01 04:55:29;;;;;;;34.80;15.88;;;;;;;-1.43;100.00;99871.06;6123861;23;20455;-82
2023/12/01 04:57:58;;;;;;;31.65;15.93;;;;;;;-1.38;100.00;99873.75;6099507;23;20518;-83
2023/12/01 05:00:31;;;;;;;28.77;13.32;;;;;;;-1.47;100.00;99876.06;6119932;23;20033;-82
2023/12/01 05:03:05;;;;;;;34.60;17.50;;;;;;;-1.53;100.00;99876.78;6096936;23;20568;-82
2023/12/01 05:05:41;;;;;;;;;;;;;;;-1.35;100.00;99877.25;6121291;23;20052;-81
2023/12/01 05:08:12;;;;;;;34.67;15.73;;;;;;;-1.17;100.00;99881.16;6122253;23;20007;-83
2023/12/01 05:10:44;;;;;;;36.28;17.48;;;;;;;-1.14;100.00;99881.22;6121338;23;20032;-84
2023/12/01 05:13:11;;;;;;;37.00;19.05;;;;;;;-1.24;100.00;99890.41;6121448;23;20018;-83
2023/12/01 05:15:38;;;;;;;34.67;16.35;;;;;;;-1.09;100.00;99881.38;6092382;23;20018;-83
2023/12/01 05:18:10;;;;;;;44.85;19.25;;;;;;;-1.13;100.00;99882.09;6121458;23;20021;-82
2023/12/01 05:20:40;;;;;;;37.05;17.25;;;;;;;-1.19;100.00;99885.38;6096654;23;20025;-83
2023/12/01 05:23:10;;;;;;;34.03;16.80;;;;;;;-1.40;100.00;99883.13;6120966;23;20336;-83
2023/12/01 05:25:41;;;;;;;32.10;15.27;;;;;;;-1.57;100.00;99887.78;6119912;23;20409;-81
2023/12/01 05:28:09;;;;;;;42.25;18.35;;;;;;;-1.42;100.00;99885.66;6121498;23;20072;-82
2023/12/01 05:30:40;;;;;;;36.47;17.60;;;;;;;-1.52;100.00;99886.22;6095539;23;20029;-81
2023/12/01 05:33:08;;;;;;;42.33;19.13;;;;;;;-1.57;100.00;99888.66;6096275;23;20041;-83
2023/12/01 05:35:36;;;;;;;37.40;17.88;;;;;;;-1.65;100.00;99889.28;6121073;23;20021;-82
2023/12/01 05:38:04;;;;;;;43.80;18.45;;;;;;;-1.54;100.00;99893.00;6096814;23;20028;-83
2023/12/01 05:40:40;;;;;;;40.45;20.60;;;;;;;-1.48;100.00;99894.88;6120178;23;20036;-82
2023/12/01 05:43:08;;;;;;;38.53;18.50;;;;;;;-1.39;100.00;99905.41;6097217;23;20134;-83
2023/12/01 05:45:35;;;;;;;37.55;15.75;;;;;;;-1.38;100.00;99899.44;6121067;23;20518;-81
2023/12/01 05:48:07;;;;;;;44.80;18.52;;;;;;;-1.38;100.00;99907.16;6097445;23;20529;-83
2023/12/01 05:50:34;;;;;;;37.70;17.92;;;;;;;-1.51;100.00;99903.38;6097492;23;20025;-82
2023/12/01 05:53:06;;;;;;;33.90;16.33;;;;;;;-1.73;100.00;99904.47;6096209;23;20084;-82
2023/12/01 05:55:35;;;;;;;49.92;22.25;;;;;;;-1.91;100.00;99902.22;6120661;23;20073;-83
2023/12/01 05:58:05;;;;;;;36.17;17.52;;;;;;;-1.75;100.00;99906.94;6122438;23;20076;-82
2023/12/01 06:00:32;;;;;;;37.50;17.35;;;;;;;-1.60;100.00;99901.41;6120861;23;20101;-83
2023/12/01 06:03:03;;;;;;;39.30;16.67;;;;;;;-1.43;100.00;99901.88;6096691;23;20022;-82
2023/12/01 06:05:31;;;;;;;28.92;14.65;;;;;;;-1.41;100.00;99902.78;6098404;23;20022;-83
2023/12/01 06:08:00;;;;;;;38.97;18.42;;;;;;;-1.43;100.00;99901.88;6100985;23;20108;-81
2023/12/01 06:10:31;;;;;;;29.63;15.40;;;;;;;-1.52;100.00;99901.63;6099940;23;20022;-82
2023/12/01 06:12:59;;;;;;;36.25;15.60;;;;;;;-1.56;100.00;99910.06;6077787;23;20435;-81
2023/12/01 06:15:29;;;;;;;27.80;13.75;;;;;;;-1.64;100.00;99906.38;6100387;23;20072;-81
2023/12/01 06:18:01;;;;;;;34.15;14.57;;;;;;;-1.63;100.00;99913.28;6124839;23;20021;-83
2023/12/01 06:20:31;;;;;;;28.83;13.63;;;;;;;-1.73;100.00;99917.28;6124861;23;20040;-81
2023/12/01 06:23:05;;;;;;;35.08;19.10;;;;;;;-1.71;100.00;99919.06;6124105;23;20013;-83
2023/12/01 06:25:35;;;;;;;35.05;17.23;;;;;;;-1.52;100.00;99920.44;6124749;23;20021;-81
2023/12/01 06:28:04;;;;;;;36.67;17.63;;;;;;;-1.44;100.00;99919.81;6124120;23;20121;-81
2023/12/01 06:30:35;;;;;;;36.15;16.98;;;;;;;-1.35;100.00;99925.19;6123006;23;20029;-81
2023/12/01 06:33:07;;;;;;;36.75;16.33;;;;;;;-1.43;100.00;99930.09;6121281;23;20490;-81
2023/12/01 06:35:33;;;;;;;38.85;17.30;;;;;;;-1.37;100.00;99931.97;6098555;23;20091;-83
2023/12/01 06:38:00;;;;;;;36.03;16.63;;;;;;;-1.37;100.00;99932.84;6123421;23;20033;-83
2023/12/01 06:40:27;;;;;;;39.28;18.55;;;;;;;-1.37;100.00;99934.53;6122008;23;20028;-82
2023/12/01 06:42:56;;;;;;;32.30;14.25;;;;;;;-1.29;100.00;99945.91;6122697;23;20018;-82
2023/12/01 06:45:26;;;;;;;30.88;14.38;;;;;;;-1.24;100.00;99943.44;6124210;23;20124;-81
2023/12/01 06:48:00;;;;;;;29.42;14.07;;;;;;;-1.26;100.00;99940.84;6098775;23;20506;-80
2023/12/01 06:50:27;;;;;;;28.80;15.97;;;;;;;-1.30;100.00;99941.59;6099506;23;20085;-83
2023/12/01 06:52:55;;;;;;;29.65;14.02;;;;;;;-1.62;100.00;99941.53;6125419;23;20052;-83
2023/12/01 06:55:21;;;;;;;27.77;14.20;;;;;;;-1.56;100.00;99954.56;6099481;23;20390;-81
2023/12/01 06:57:50;;;;;;;27.40;14.02;;;;;;;-1.46;100.00;99953.13;6123202;23;20025;-83
2023/12/01 07:00:29;;;;;;;35.15;15.32;;;;;;;-1.55;100.00;99958.88;6119861;23;20017;-82
2023/12/01 07:03:05;;;;;;;36.88;16.80;;;;;;;-1.51;100.00;99958.13;6079821;23;20036;-82
2023/12/01 07:05:35;;;;;;;35.42;15.63;;;;;;;-1.44;100.00;99961.72;6120533;23;20037;-81
2023/12/01 07:08:03;;;;;;;33.65;16.73;;;;;;;-1.42;100.00;99964.34;6123938;23;20029;-81
2023/12/01 07:10:32;;;;;;;38.92;19.23;;;;;;;-1.52;100.00;99971.78;6123362;23;20299;-82
2023/12/01 07:13:03;;;;;;;42.25;18.70;;;;;;;-1.60;100.00;99977.50;6124010;23;20080;-82
2023/12/01 07:15:32;;;;;;;37.88;17.48;;;;;;;-1.55;100.00;99981.06;6098245;23;20080;-82
2023/12/01 07:18:04;;;;;;;33.22;15.38;;;;;;;-1.57;100.00;99982.75;6099659;23;20022;-81
2023/12/01 07:20:33;;;;;;;38.10;17.70;;;;;;;-1.47;100.00;99979.63;6123271;23;20025;-82
2023/12/01 07:23:01;;;;;;;35.15;16.25;;;;;;;-1.36;100.00;99982.50;6095516;23;20021;-82
2023/12/01 07:25:27;;;;;;;33.30;15.43;;;;;;;-1.29;100.00;99983.53;6120016;23;20060;-81
2023/12/01 07:28:08;;;;;;;30.73;14.68;;;;;;;-1.28;100.00;99981.00;6095622;23;20022;-80
2023/12/01 07:30:36;;;;;;;30.65;14.98;;;;;;;-1.27;100.00;99989.59;6121227;23;20124;-81
2023/12/01 07:33:07;;;;;;;35.97;17.27;;;;;;;-1.23;100.00;99991.41;6099361;23;20026;-81
2023/12/01 07:35:37;;;;;;;50.58;17.90;;;;;;;-1.34;100.00;99994.56;6099765;23;20024;-81
2023/12/01 07:38:04;;;;;;;38.42;18.00;;;;;;;-1.43;100.00;99996.00;6098854;23;20060;-83
2023/12/01 07:40:32;;;;;;;31.75;15.68;;;;;;;-1.55;100.00;100007.63;6124404;23;20526;-82
2023/12/01 07:42:59;;;;;;;35.05;14.90;;;;;;;-1.45;100.00;100013.03;6124112;23;20021;-81
2023/12/01 07:45:28;;;;;;;36.80;15.13;;;;;;;-1.51;100.00;100019.72;6124257;23;20017;-82
2023/12/01 07:47:56;;;;;;;35.65;14.73;;;;;;;-1.59;100.00;100018.66;6125825;23;20125;-82
2023/12/01 07:50:23;;;;;;;36.30;16.00;;;;;;;-1.51;100.00;100022.31;6125224;23;20049;-82
2023/12/01 07:52:51;;;;;;;30.33;14.30;;;;;;;-1.45;100.00;100024.16;6123423;23;20022;-82
2023/12/01 07:55:19;;;;;;;30.33;14.25;;;;;;;-1.62;100.00;100031.38;6124550;23;20036;-82
2023/12/01 07:57:51;;;;;;;32.25;14.13;;;;;;;-1.71;100.00;100025.94;6127876;23;20025;-83
2023/12/01 08:00:20;;;;;;;29.77;14.20;;;;;;;-1.52;100.00;100033.38;6102303;23;20029;-82
2023/12/01 08:02:51;;;;;;;27.25;12.82;;;;;;;-1.39;100.00;100038.91;6107230;23;20018;-83
2023/12/01 08:05:19;;;;;;;27.38;11.77;;;;;;;-1.42;100.00;100042.25;6133981;23;20086;-81
2023/12/01 08:07:52;;;;;;;22.75;12.70;;;;;;;-1.60;100.00;100042.56;6105612;23;20099;-83
2023/12/01 08:10:20;;;;;;;25.27;12.80;;;;;;;-1.61;100.00;100050.22;6127158;23;20045;-83
2023/12/01 08:12:51;;;;;;;21.23;11.75;;;;;;;-1.60;100.00;100051.94;6124071;23;20447;-82
2023/12/01 08:15:21;;;;;;;30.08;13.45;;;;;;;-1.67;100.00;100054.34;6125163;23;20029;-84
2023/12/01 08:17:47;;;;;;;26.38;11.98;;;;;;;-1.58;100.00;100060.56;6128914;23;20021;-83
2023/12/01 08:20:19;;;;;;;30.30;13.38;;;;;;;-1.60;100.00;100059.63;6106043;23;20017;-83
2023/12/01 08:22:47;;;;;;;32.08;11.93;;;;;;;-1.56;100.00;100059.78;6099853;23;20022;-82
2023/12/01 08:25:14;;;;;;;25.40;13.30;;;;;;;-1.52;100.00;100061.63;6122252;23;20030;-82
2023/12/01 08:27:42;;;;;;;21.63;12.30;;;;;;;-1.47;100.00;100068.59;6097967;23;20329;-82
2023/12/01 08:30:10;;;;;;;26.98;11.48;;;;;;;-1.34;100.00;100068.16;6122891;23;20448;-82
2023/12/01 08:32:37;;;;;;;26.27;13.10;;;;;;;-1.31;100.00;100063.09;6097398;23;20398;-82
2023/12/01 08:35:05;;;;;;;29.77;13.70;;;;;;;-1.38;100.00;100068.88;6096583;23;20055;-82
2023/12/01 08:37:35;;;;;;;25.25;12.55;;;;;;;-1.27;100.00;100067.50;6122889;23;20056;-81
2023/12/01 08:40:04;;;;;;;26.25;12.45;;;;;;;-1.29;100.00;100070.84;6123058;23;20410;-82
2023/12/01 08:42:31;;;;;;;25.85;11.48;;;;;;;-1.62;100.00;100069.88;6122937;23;20053;-81
2023/12/01 08:44:58;;;;;;;21.02;12.65;;;;;;;-1.63;100.00;100085.22;6097627;23;20021;-82
2023/12/01 08:47:24;;;;;;;23.83;11.57;;;;;;;-1.57;100.00;100080.28;6098768;23;20030;-81
2023/12/01 08:49:51;;;;;;;21.52;10.27;;;;;;;-1.73;100.00;100084.06;6122393;23;20018;-81
2023/12/01 08:52:18;;;;;;;24.20;13.00;;;;;;;-1.51;100.00;100085.63;6123059;23;20026;-83
2023/12/01 08:54:47;;;;;;;20.20;10.50;;;;;;;-1.73;100.00;100087.50;6096834;23;20017;-80
2023/12/01 08:57:16;;;;;;;24.23;10.98;;;;;;;-1.74;100.00;100087.47;6123949;23;20025;-82
2023/12/01 08:59:43;;;;;;;22.73;11.57;;;;;;;-1.60;100.00;100087.88;6097295;23;20116;-81
2023/12/01 09:02:10;;;;;;;19.70;10.10;;;;;;;-1.54;100.00;100096.66;6122443;23;20025;-80
2023/12/01 09:04:37;;;;;;;16.58;8.70;;;;;;;-1.76;100.00;100095.13;6120709;23;20056;-81
2023/12/01 09:07:05;;;;;;;19.00;8.43;;;;;;;-1.76;100.00;100096.78;6123180;23;20336;-79
2023/12/01 09:09:32;;;;;;;15.18;8.15;;;;;;;-1.90;100.00;100092.09;6123494;23;20026;-81
2023/12/01 09:11:58;;;;;;;12.07;6.63;;;;;;;-1.91;100.00;100095.47;6098407;23;20029;-83
2023/12/01 09:14:25;;;;;;;10.63;6.90;;;;;;;-1.73;100.00;100092.63;6120813;23;20021;-82
2023/12/01 09:16:53;;;;;;;12.32;6.60;;;;;;;-1.53;100.00;100093.25;6098902;23;20104;-82
2023/12/01 09:19:22;;;;;;;14.30;7.30;;;;;;;-1.41;100.00;100089.31;6123339;23;20018;-82
2023/12/01 09:21:49;;;;;;;10.90;7.03;;;;;;;-1.48;99.04;100084.84;6124218;23;20024;-81
2023/12/01 09:24:16;;;;;;;10.90;6.43;;;;;;;-1.58;99.01;100094.78;6123631;23;20068;-82
2023/12/01 09:26:43;;;;;;;12.75;6.25;;;;;;;-1.59;98.86;100087.94;6097245;23;20029;-80
2023/12/01 09:29:09;;;;;;;12.20;8.20;;;;;;;-1.60;97.26;100086.19;6123590;23;20025;-82
2023/12/01 09:31:49;;;;;;;13.63;7.38;;;;;;;-1.48;99.43;100095.97;6124226;23;20040;-81
2023/12/01 09:34:17;;;;;;;12.75;6.40;;;;;;;-1.49;96.62;100096.78;6123284;23;20511;-82
2023/12/01 09:36:44;;;;;;;9.52;6.07;;;;;;;-1.28;98.78;100094.00;6099608;23;20040;-82
2023/12/01 09:39:10;;;;;;;9.63;6.25;;;;;;;-1.10;97.95;100101.38;6100338;23;20061;-82
2023/12/01 09:41:42;;;;;;;11.20;6.50;;;;;;;-1.41;95.23;100109.84;6125411;23;20025;-79
2023/12/01 09:44:09;;;;;;;9.82;6.10;;;;;;;-1.48;95.60;100105.38;6126776;23;20105;-81
2023/12/01 09:46:36;;;;;;;12.80;6.45;;;;;;;-1.58;95.78;100111.91;6125070;23;20025;-83
2023/12/01 09:49:05;;;;;;;11.85;6.88;;;;;;;-1.68;95.88;100105.63;6101052;23;20374;-81
2023/12/01 09:51:36;;;;;;;10.80;5.75;;;;;;;-1.67;95.69;100108.22;6101293;23;20049;-82
2023/12/01 09:54:06;;;;;;;12.50;6.93;;;;;;;-1.69;95.83;100107.31;6127011;23;20044;-81
2023/12/01 09:56:33;;;;;;;12.13;6.47;;;;;;;-1.77;96.35;100106.19;6099776;23;20025;-81
2023/12/01 09:59:01;;;;;;;14.02;6.35;;;;;;;-1.71;97.59;100106.41;6100179;23;20104;-81
2023/12/01 10:01:28;;;;;;;16.83;7.13;;;;;;;-1.62;97.55;100104.94;6101839;23;20164;-83
2023/12/01 10:03:55;;;;;;;18.80;7.10;;;;;;;-1.56;96.14;100110.28;6123538;23;20075;-81
2023/12/01 10:06:28;;;;;;;8.73;5.78;;;;;;;-1.54;96.28;100101.78;6100911;23;20040;-81
2023/12/01 10:08:54;;;;;;;12.02;6.25;;;;;;;-1.40;95.50;100098.78;6124907;23;20029;-81
2023/12/01 10:11:26;;;;;;;15.23;7.85;;;;;;;-1.38;95.70;100100.56;6124311;23;20106;-83
2023/12/01 10:13:55;;;;;;;10.77;5.97;;;;;;;-1.24;95.19;100102.66;6099215;23;20018;-81
2023/12/01 10:16:23;;;;;;;16.77;7.68;;;;;;;-1.30;95.52;100107.59;6148155;23;20423;-82
2023/12/01 10:19:05;;;;;;;12.35;7.47;;;;;;;-1.55;95.04;100109.41;6124185;23;20013;-80
2023/12/01 10:21:49;;;;;;;14.88;7.57;;;;;;;-1.77;96.69;100105.31;6125838;23;20066;-80
2023/12/01 10:24:21;;;;;;;15.85;8.27;;;;;;;-1.72;95.69;100111.47;6100540;23;20451;-81
2023/12/01 10:26:58;;;;;;;15.40;8.30;;;;;;;-1.61;95.47;100104.97;6099979;23;20025;-81
2023/12/01 10:29:31;;;;;;;16.45;8.77;;;;;;;-1.50;96.49;100111.31;6124422;23;20072;-81
2023/12/01 10:32:00;;;;;;;18.13;8.07;;;;;;;-1.33;96.79;100113.53;6098922;23;20463;-81
2023/12/01 10:34:27;;;;;;;18.70;9.10;;;;;;;-1.42;96.61;100109.00;6100488;23;20092;-83
2023/12/01 10:36:55;;;;;;;18.65;9.52;;;;;;;-1.46;96.71;100109.72;6100185;23;20029;-80
2023/12/01 10:39:29;;;;;;;19.88;9.73;;;;;;;-1.63;95.84;100111.78;6100084;23;20026;-81
2023/12/01 10:41:57;;;;;;;18.45;9.70;;;;;;;-1.56;96.62;100110.28;6124701;23;20031;-81
2023/12/01 10:44:27;;;;;;;14.43;7.70;;;;;;;-1.71;96.77;100113.22;6122026;23;20365;-80
2023/12/01 10:46:57;;;;;;;15.63;7.47;;;;;;;-1.67;95.09;100109.91;6123224;23;20063;-81
2023/12/01 10:49:24;;;;;;;14.18;7.28;;;;;;;-1.68;96.58;100110.75;6100104;23;20076;-80
2023/12/01 10:51:52;;;;;;;13.02;7.10;;;;;;;-1.85;95.54;100110.22;6100604;23;20060;-81
2023/12/01 10:54:27;;;;;;;14.13;7.20;;;;;;;-1.92;97.38;100113.38;6098948;23;20092;-81
2023/12/01 10:57:26;;;;;;;13.38;8.63;;;;;;;-1.85;97.38;100111.06;6125963;23;20085;-81
2023/12/01 10:59:57;;;;;;;14.98;7.10;;;;;;;-1.66;96.58;100106.53;6125470;23;20028;-82
2023/12/01 11:02:31;;;;;;;13.88;6.63;;;;;;;-1.64;95.28;100104.88;6100395;23;20025;-81
2023/12/01 11:05:03;;;;;;;14.73;9.48;;;;;;;-1.45;96.24;100105.47;6097100;23;20586;-80
2023/12/01 11:08:17;;;;;;;17.67;8.00;;;;;;;-1.57;95.72;100098.25;6123780;23;20028;-83
2023/12/01 11:11:04;;;;;;;14.10;7.22;;;;;;;-1.29;95.79;100093.94;6123620;23;20056;-83
2023/12/01 11:14:14;;;;;;;13.07;7.60;;;;;;;-1.10;95.85;100096.25;6099902;23;20080;-82
2023/12/01 11:16:47;;;;;;;18.50;8.48;;;;;;;-1.14;93.67;100091.84;6147571;23;20026;-81
2023/12/01 11:19:16;;;;;;;11.50;7.60;;;;;;;-1.11;94.54;100086.78;6100682;23;20025;-81